createdAt,value
2022-08-10T00:01:51.236Z,21.20
2022-08-10T00:04:21.479Z,21.20
2022-08-10T00:06:51.909Z,21.10
2022-08-10T00:09:21.971Z,21.10
2022-08-10T00:11:50.522Z,21.10
2022-08-10T00:14:19.454Z,21.00
2022-08-10T00:16:48.215Z,21.00
2022-08-10T00:19:18.131Z,21.00
2022-08-10T00:21:47.133Z,21.00
2022-08-10T00:24:15.814Z,20.90
2022-08-10T00:28:02.284Z,20.90
2022-08-10T00:29:34.085Z,20.90
2022-08-10T00:32:02.243Z,20.80
2022-08-10T00:34:32.842Z,20.80
2022-08-10T00:37:01.682Z,20.80
2022-08-10T00:39:30.630Z,20.80
2022-08-10T00:42:08.173Z,20.80
2022-08-10T00:44:38.220Z,20.70
2022-08-10T00:47:07.302Z,20.70
2022-08-10T00:49:55.794Z,20.60
2022-08-10T00:52:25.603Z,20.60
2022-08-10T00:54:54.591Z,20.60
2022-08-10T00:57:25.499Z,20.50
2022-08-10T00:59:57.601Z,20.50
2022-08-10T01:02:29.249Z,20.50
2022-08-10T01:05:01.596Z,20.50
2022-08-10T01:07:57.615Z,20.50
2022-08-10T01:10:39.318Z,20.50
2022-08-10T01:13:20.634Z,20.40
2022-08-10T01:16:05.272Z,20.40
2022-08-10T01:18:47.209Z,20.30
2022-08-10T01:21:59.775Z,20.30
2022-08-10T01:25:08.018Z,20.30
2022-08-10T01:27:43.905Z,20.20
2022-08-10T01:30:16.150Z,20.20
2022-08-10T01:32:51.743Z,20.20
2022-08-10T01:35:32.095Z,20.10
2022-08-10T01:38:07.751Z,20.10
2022-08-10T01:40:43.248Z,20.10
2022-08-10T01:43:17.318Z,20.10
2022-08-10T01:45:52.311Z,20.10
2022-08-10T01:48:31.233Z,20.10
2022-08-10T01:51:14.120Z,20.00
2022-08-10T01:53:47.166Z,20.00
2022-08-10T01:56:19.059Z,19.90
2022-08-10T01:58:52.855Z,19.90
2022-08-10T02:01:26.672Z,19.90
2022-08-10T02:04:05.605Z,19.80
2022-08-10T02:06:39.475Z,19.80
2022-08-10T02:09:09.940Z,19.70
2022-08-10T02:12:06.647Z,19.70
2022-08-10T02:14:36.479Z,19.70
2022-08-10T02:17:57.344Z,19.70
2022-08-10T02:20:08.305Z,19.70
2022-08-10T02:22:39.841Z,19.60
2022-08-10T02:25:40.551Z,19.60
2022-08-10T02:28:02.256Z,19.50
2022-08-10T02:30:31.943Z,19.50
2022-08-10T02:33:04.472Z,19.50
2022-08-10T02:35:53.776Z,19.50
2022-08-10T02:38:59.456Z,19.50
2022-08-10T02:45:15.706Z,19.40
2022-08-10T02:45:19.341Z,19.40
2022-08-10T02:47:27.981Z,19.40
2022-08-10T02:50:23.680Z,19.30
2022-08-10T02:53:03.634Z,19.30
2022-08-10T02:55:41.838Z,19.30
2022-08-10T02:58:18.305Z,19.30
2022-08-10T03:00:52.721Z,19.20
2022-08-10T03:03:27.044Z,19.20
2022-08-10T03:06:02.155Z,19.20
2022-08-10T03:08:35.362Z,19.10
2022-08-10T03:11:07.109Z,19.10
2022-08-10T03:13:37.777Z,19.10
2022-08-10T03:16:10.800Z,19.00
2022-08-10T03:18:41.305Z,19.00
2022-08-10T03:21:12.941Z,19.00
2022-08-10T03:23:44.810Z,19.00
2022-08-10T03:26:20.294Z,19.00
2022-08-10T03:28:50.379Z,18.90
2022-08-10T03:31:19.434Z,18.90
2022-08-10T03:33:48.962Z,18.90
2022-08-10T03:36:42.401Z,18.80
2022-08-10T03:39:06.698Z,18.80
2022-08-10T03:41:40.916Z,18.80
2022-08-10T03:44:21.811Z,18.70
2022-08-10T03:46:51.627Z,18.70
2022-08-10T03:49:22.468Z,18.70
2022-08-10T03:51:52.472Z,18.70
2022-08-10T03:54:22.994Z,18.60
2022-08-10T03:56:51.471Z,18.60
2022-08-10T03:59:19.787Z,18.60
2022-08-10T04:02:41.829Z,18.60
2022-08-10T04:04:39.679Z,18.50
2022-08-10T04:07:11.547Z,18.50
2022-08-10T04:09:55.073Z,18.50
2022-08-10T04:12:24.329Z,18.50
2022-08-10T04:14:53.694Z,18.40
2022-08-10T04:18:01.384Z,18.40
2022-08-10T04:20:34.618Z,18.40
2022-08-10T04:23:10.449Z,18.40
2022-08-10T04:25:41.011Z,18.30
2022-08-10T04:28:11.926Z,18.30
2022-08-10T04:30:42.673Z,18.30
2022-08-10T04:33:15.980Z,18.30
2022-08-10T04:35:46.624Z,18.20
2022-08-10T04:38:18.134Z,18.20
2022-08-10T04:40:47.902Z,18.20
2022-08-10T04:43:16.489Z,18.10
2022-08-10T04:45:47.764Z,18.10
2022-08-10T04:48:43.092Z,18.10
2022-08-10T04:51:11.127Z,18.10
2022-08-10T04:54:05.721Z,18.00
2022-08-10T04:56:36.662Z,18.00
2022-08-10T04:59:06.546Z,18.00
2022-08-10T05:02:27.120Z,17.90
2022-08-10T05:04:34.870Z,18.00
2022-08-10T05:07:12.193Z,17.90
2022-08-10T05:10:02.031Z,17.90
2022-08-10T05:12:37.421Z,17.90
2022-08-10T05:15:08.830Z,17.90
2022-08-10T05:17:37.748Z,17.90
2022-08-10T05:20:09.235Z,17.90
2022-08-10T05:22:39.809Z,17.90
2022-08-10T05:25:26.198Z,18.00
2022-08-10T05:27:57.391Z,17.90
2022-08-10T05:30:26.348Z,17.90
2022-08-10T05:32:56.361Z,18.00
2022-08-10T05:35:55.488Z,18.00
2022-08-10T05:38:19.282Z,18.00
2022-08-10T05:40:50.548Z,18.00
2022-08-10T05:43:22.074Z,18.10
2022-08-10T05:46:19.450Z,18.10
2022-08-10T05:48:58.922Z,18.10
2022-08-10T05:51:29.713Z,18.10
2022-08-10T05:54:03.408Z,18.20
2022-08-10T05:56:54.235Z,18.20
2022-08-10T06:00:29.473Z,18.20
2022-08-10T06:02:32.514Z,18.30
2022-08-10T06:05:12.831Z,18.40
2022-08-10T06:07:47.585Z,18.40
2022-08-10T06:10:31.657Z,18.50
2022-08-10T06:13:29.706Z,18.60
2022-08-10T06:16:07.803Z,18.60
2022-08-10T06:18:37.841Z,18.70
2022-08-10T06:21:09.430Z,18.80
2022-08-10T06:23:39.201Z,18.90
2022-08-10T06:26:14.074Z,19.00
2022-08-10T06:28:58.975Z,19.10
2022-08-10T06:31:46.777Z,19.20
2022-08-10T06:34:17.966Z,19.40
2022-08-10T06:36:46.985Z,19.50
2022-08-10T06:39:33.097Z,19.60
2022-08-10T06:42:16.351Z,19.80
2022-08-10T06:44:59.511Z,19.90
2022-08-10T06:47:38.255Z,20.10
2022-08-10T06:50:17.468Z,20.20
2022-08-10T06:53:11.683Z,20.40
2022-08-10T06:55:57.077Z,20.40
2022-08-10T06:58:33.165Z,20.60
2022-08-10T07:01:06.791Z,20.80
2022-08-10T07:03:43.682Z,20.80
2022-08-10T07:06:14.855Z,20.90
2022-08-10T07:08:44.555Z,21.00
2022-08-10T07:11:14.594Z,21.10
2022-08-10T07:14:14.046Z,21.20
2022-08-10T07:16:39.522Z,21.40
2022-08-10T07:19:10.658Z,21.50
2022-08-10T07:21:40.626Z,21.50
2022-08-10T07:24:11.961Z,21.60
2022-08-10T07:26:47.544Z,21.70
2022-08-10T07:29:26.554Z,21.80
2022-08-10T07:32:09.274Z,21.90
2022-08-10T07:34:39.262Z,22.00
2022-08-10T07:37:10.655Z,22.10
2022-08-10T07:40:02.490Z,22.20
2022-08-10T07:42:33.831Z,22.20
2022-08-10T07:45:04.383Z,22.40
2022-08-10T07:47:52.322Z,22.50
2022-08-10T07:50:26.489Z,22.50
2022-08-10T07:52:59.406Z,22.60
2022-08-10T07:56:03.588Z,22.70
2022-08-10T07:58:18.983Z,22.90
2022-08-10T08:00:49.349Z,23.00
2022-08-10T08:03:25.747Z,23.10
2022-08-10T08:06:02.581Z,23.30
2022-08-10T08:08:36.230Z,23.40
2022-08-10T08:11:05.358Z,23.40
2022-08-10T08:13:35.160Z,23.50
2022-08-10T08:16:16.908Z,23.60
2022-08-10T08:18:58.228Z,23.60
2022-08-10T08:24:05.336Z,23.80
2022-08-10T08:24:32.489Z,23.80
2022-08-10T08:27:04.583Z,24.00
2022-08-10T08:29:37.842Z,24.20
2022-08-10T08:32:07.443Z,24.20
2022-08-10T08:34:40.753Z,24.40
2022-08-10T08:37:12.558Z,24.50
2022-08-10T08:39:47.550Z,24.60
2022-08-10T08:42:36.359Z,24.60
2022-08-10T08:45:24.313Z,24.80
2022-08-10T08:48:30.882Z,24.90
2022-08-10T08:52:09.985Z,25.00
2022-08-10T08:54:24.801Z,25.00
2022-08-10T08:57:04.453Z,25.10
2022-08-10T08:59:52.951Z,25.20
2022-08-10T09:02:45.093Z,25.30
2022-08-10T09:05:58.801Z,25.40
2022-08-10T09:09:08.240Z,25.60
2022-08-10T09:11:55.117Z,25.80
2022-08-10T09:14:31.492Z,25.90
2022-08-10T09:17:10.677Z,26.10
2022-08-10T09:19:49.472Z,26.20
2022-08-10T09:22:30.393Z,26.30
2022-08-10T09:25:17.616Z,26.30
2022-08-10T09:27:50.005Z,26.30
2022-08-10T09:30:31.674Z,26.40
2022-08-10T09:36:23.502Z,26.50
2022-08-10T09:36:31.871Z,26.60
2022-08-10T09:40:06.860Z,26.70
2022-08-10T09:42:24.555Z,26.80
2022-08-10T09:45:03.046Z,26.90
2022-08-10T09:48:02.809Z,27.00
2022-08-10T09:51:34.523Z,27.00
2022-08-10T09:53:51.235Z,27.10
2022-08-10T09:56:30.492Z,27.20
2022-08-10T09:59:26.796Z,27.20
2022-08-10T10:02:19.854Z,27.20
2022-08-10T10:05:05.058Z,27.30
2022-08-10T10:07:37.614Z,27.30
2022-08-10T10:10:13.038Z,27.40
2022-08-10T10:12:53.709Z,27.50
2022-08-10T10:15:35.868Z,27.50
2022-08-10T10:18:42.569Z,27.60
2022-08-10T10:21:54.243Z,27.80
2022-08-10T10:24:24.787Z,27.90
2022-08-10T10:27:00.872Z,28.00
2022-08-10T10:29:56.700Z,28.10
2022-08-10T10:32:42.376Z,28.30
2022-08-10T10:35:24.336Z,28.40
2022-08-10T10:38:00.984Z,28.40
2022-08-10T10:40:43.221Z,28.50
2022-08-10T10:43:33.062Z,28.60
2022-08-10T10:46:18.015Z,28.70
2022-08-10T10:49:06.894Z,28.70
2022-08-10T10:51:45.669Z,28.80
2022-08-10T10:54:25.810Z,28.80
2022-08-10T10:57:04.729Z,28.90
2022-08-10T10:59:55.591Z,29.00
2022-08-10T11:02:44.718Z,29.00
2022-08-10T11:05:28.043Z,29.00
2022-08-10T11:08:02.531Z,29.00
2022-08-10T11:10:46.483Z,29.10
2022-08-10T11:14:25.128Z,29.10
2022-08-10T11:16:36.557Z,29.10
2022-08-10T11:19:16.659Z,29.20
2022-08-10T11:22:02.428Z,29.30
2022-08-10T11:24:49.659Z,29.40
2022-08-10T11:27:32.891Z,29.40
2022-08-10T11:30:07.651Z,29.40
2022-08-10T11:32:54.465Z,29.40
2022-08-10T11:35:34.829Z,29.40
2022-08-10T11:38:28.373Z,29.40
2022-08-10T11:42:08.922Z,29.40
2022-08-10T11:44:14.515Z,29.50
2022-08-10T11:46:54.427Z,29.60
2022-08-10T11:49:33.055Z,29.70
2022-08-10T11:52:10.890Z,29.90
2022-08-10T11:54:44.822Z,29.90
2022-08-10T11:57:16.013Z,30.00
2022-08-10T11:59:58.003Z,30.00
2022-08-10T12:02:34.506Z,30.00
2022-08-10T12:05:10.089Z,30.10
2022-08-10T12:10:06.682Z,30.10
2022-08-10T12:10:40.962Z,30.20
2022-08-10T12:13:13.877Z,30.20
2022-08-10T12:15:55.894Z,30.10
2022-08-10T12:18:31.589Z,30.20
2022-08-10T12:21:09.759Z,30.30
2022-08-10T12:24:03.248Z,30.30
2022-08-10T12:26:43.813Z,30.30
2022-08-10T12:29:25.477Z,30.30
2022-08-10T12:32:05.470Z,30.30
2022-08-10T12:34:45.474Z,30.30
2022-08-10T12:37:23.605Z,30.30
2022-08-10T12:40:33.910Z,30.30
2022-08-10T12:43:12.950Z,30.40
2022-08-10T12:46:08.482Z,30.40
2022-08-10T12:48:49.444Z,30.40
2022-08-10T12:51:24.420Z,30.40
2022-08-10T12:54:02.874Z,30.40
2022-08-10T12:56:40.019Z,30.50
2022-08-10T12:59:13.019Z,30.50
2022-08-10T13:02:06.186Z,30.60
2022-08-10T13:04:36.970Z,30.50
2022-08-10T13:07:08.555Z,30.60
2022-08-10T13:09:56.029Z,30.60
2022-08-10T13:12:39.203Z,30.60
2022-08-10T13:15:45.424Z,30.70
2022-08-10T13:18:18.894Z,30.70
2022-08-10T13:20:54.419Z,30.70
2022-08-10T13:23:27.800Z,30.70
2022-08-10T13:26:00.671Z,30.80
2022-08-10T13:28:43.354Z,30.80
2022-08-10T13:31:19.861Z,30.80
2022-08-10T13:34:40.882Z,30.90
2022-08-10T13:36:43.064Z,30.90
2022-08-10T13:39:14.037Z,30.90
2022-08-10T13:41:46.130Z,30.90
2022-08-10T13:44:21.618Z,30.90
2022-08-10T13:46:52.490Z,30.90
2022-08-10T13:49:22.549Z,31.00
2022-08-10T13:51:54.242Z,31.00
2022-08-10T13:54:37.014Z,31.00
2022-08-10T13:57:07.764Z,31.10
2022-08-10T14:00:34.473Z,31.20
2022-08-10T14:02:42.200Z,31.20
2022-08-10T14:05:12.278Z,31.20
2022-08-10T14:08:00.144Z,31.20
2022-08-10T14:11:09.903Z,31.20
2022-08-10T14:13:27.102Z,31.30
2022-08-10T14:15:58.266Z,31.40
2022-08-10T14:18:28.714Z,31.40
2022-08-10T14:21:00.053Z,31.40
2022-08-10T14:23:28.561Z,31.40
2022-08-10T14:26:06.615Z,31.40
2022-08-10T14:28:44.986Z,31.40
2022-08-10T14:31:21.599Z,31.40
2022-08-10T14:33:55.768Z,31.30
2022-08-10T14:36:38.907Z,31.30
2022-08-10T14:39:12.882Z,31.40
2022-08-10T14:42:01.330Z,31.40
2022-08-10T14:44:44.974Z,31.50
2022-08-10T14:47:52.742Z,31.50
2022-08-10T14:50:09.709Z,31.60
2022-08-10T14:52:48.250Z,31.60
2022-08-10T14:55:19.456Z,31.60
2022-08-10T14:58:16.620Z,31.70
2022-08-10T15:00:43.623Z,31.70
2022-08-10T15:03:58.738Z,31.80
2022-08-10T15:06:17.120Z,31.80
2022-08-10T15:08:48.578Z,31.80
2022-08-10T15:12:11.716Z,31.80
2022-08-10T15:14:29.318Z,31.80
2022-08-10T15:17:00.383Z,31.90
2022-08-10T15:20:04.371Z,31.90
2022-08-10T15:22:37.006Z,31.90
2022-08-10T15:25:17.609Z,31.80
2022-08-10T15:27:53.605Z,31.80
2022-08-10T15:30:30.062Z,31.80
2022-08-10T15:33:21.452Z,31.90
2022-08-10T15:36:33.381Z,31.90
2022-08-10T15:39:14.959Z,31.90
2022-08-10T15:42:00.655Z,31.90
2022-08-10T15:44:41.273Z,31.90
2022-08-10T15:47:20.698Z,31.90
2022-08-10T15:49:59.050Z,31.90
2022-08-10T15:52:39.928Z,32.00
2022-08-10T15:55:41.271Z,32.00
2022-08-10T15:58:20.353Z,32.00
2022-08-10T16:02:12.899Z,32.00
2022-08-10T16:04:08.675Z,32.00
2022-08-10T16:06:44.434Z,32.00
2022-08-10T16:10:23.040Z,32.10
2022-08-10T16:12:16.833Z,32.00
2022-08-10T16:14:50.037Z,32.00
2022-08-10T16:17:21.876Z,31.90
2022-08-10T16:19:54.540Z,32.00
2022-08-10T16:22:33.939Z,32.00
2022-08-10T16:25:12.448Z,32.00
2022-08-10T16:27:45.034Z,32.10
2022-08-10T16:30:14.592Z,32.10
2022-08-10T16:32:47.456Z,32.10
2022-08-10T16:35:20.335Z,32.20
2022-08-10T16:37:57.366Z,32.10
2022-08-10T16:40:29.737Z,32.10
2022-08-10T16:43:01.905Z,32.10
2022-08-10T16:45:38.055Z,32.10
2022-08-10T16:48:10.184Z,32.10
2022-08-10T16:50:42.928Z,32.10
2022-08-10T16:53:16.532Z,32.10
2022-08-10T16:55:50.956Z,32.00
2022-08-10T16:58:27.198Z,32.00
2022-08-10T17:01:02.788Z,32.00
2022-08-10T17:04:06.906Z,32.00
2022-08-10T17:06:32.736Z,31.90
2022-08-10T17:09:04.154Z,31.90
2022-08-10T17:11:36.455Z,31.90
2022-08-10T17:14:10.461Z,31.90
2022-08-10T17:16:43.279Z,31.90
2022-08-10T17:19:15.691Z,31.90
2022-08-10T17:21:51.916Z,31.90
2022-08-10T17:24:27.260Z,31.90
2022-08-10T17:26:59.361Z,31.90
2022-08-10T17:29:57.355Z,31.90
2022-08-10T17:32:30.455Z,31.80
2022-08-10T17:35:03.678Z,31.70
2022-08-10T17:37:38.969Z,31.60
2022-08-10T17:40:14.680Z,31.60
2022-08-10T17:42:47.924Z,31.50
2022-08-10T17:45:46.931Z,31.50
2022-08-10T17:48:11.892Z,31.40
2022-08-10T17:50:43.801Z,31.30
2022-08-10T17:53:18.137Z,31.20
2022-08-10T17:55:54.063Z,31.10
2022-08-10T17:58:24.973Z,31.00
2022-08-10T18:01:38.206Z,30.90
2022-08-10T18:03:55.001Z,30.90
2022-08-10T18:06:24.962Z,30.80
2022-08-10T18:08:58.856Z,30.70
2022-08-10T18:11:31.958Z,30.70
2022-08-10T18:14:05.619Z,30.60
2022-08-10T18:16:35.971Z,30.50
2022-08-10T18:19:14.462Z,30.50
2022-08-10T18:21:47.211Z,30.40
2022-08-10T18:24:19.915Z,30.30
2022-08-10T18:26:52.209Z,30.30
2022-08-10T18:29:23.809Z,30.20
2022-08-10T18:32:01.070Z,30.20
2022-08-10T18:34:32.985Z,30.10
2022-08-10T18:37:03.362Z,30.10
2022-08-10T18:39:39.574Z,30.00
2022-08-10T18:42:14.073Z,29.90
2022-08-10T18:44:50.192Z,29.90
2022-08-10T18:47:36.228Z,29.80
2022-08-10T18:50:12.785Z,29.70
2022-08-10T18:52:45.359Z,29.60
2022-08-10T18:55:24.508Z,29.50
2022-08-10T18:58:41.775Z,29.40
2022-08-10T19:01:43.795Z,29.40
2022-08-10T19:04:44.453Z,29.30
2022-08-10T19:07:46.318Z,29.20
2022-08-10T19:10:35.416Z,29.10
2022-08-10T19:13:18.833Z,29.00
2022-08-10T19:16:02.019Z,28.90
2022-08-10T19:18:38.248Z,28.80
2022-08-10T19:21:18.134Z,28.70
2022-08-10T19:24:02.320Z,28.70
2022-08-10T19:26:47.481Z,28.60
2022-08-10T19:30:09.294Z,28.50
2022-08-10T19:32:42.527Z,28.40
2022-08-10T19:35:23.952Z,28.40
2022-08-10T19:38:16.919Z,28.30
2022-08-10T19:41:00.437Z,28.20
2022-08-10T19:44:01.461Z,28.10
2022-08-10T19:46:43.735Z,28.00
2022-08-10T19:49:28.000Z,27.90
2022-08-10T19:52:11.124Z,27.80
2022-08-10T19:54:56.683Z,27.70
2022-08-10T19:57:35.907Z,27.70
2022-08-10T20:00:19.798Z,27.60
2022-08-10T20:03:11.812Z,27.50
2022-08-10T20:06:18.148Z,27.50
2022-08-10T20:08:57.200Z,27.40
2022-08-10T20:11:46.115Z,27.30
2022-08-10T20:14:22.863Z,27.30
2022-08-10T20:16:59.979Z,27.30
2022-08-10T20:19:53.417Z,27.20
2022-08-10T20:22:29.665Z,27.10
2022-08-10T20:25:05.039Z,27.00
2022-08-10T20:27:59.029Z,27.00
2022-08-10T20:30:34.216Z,26.90
2022-08-10T20:33:12.051Z,26.80
2022-08-10T20:35:50.383Z,26.70
2022-08-10T20:38:27.255Z,26.70
2022-08-10T20:41:13.171Z,26.60
2022-08-10T20:44:01.282Z,26.50
2022-08-10T20:46:39.233Z,26.50
2022-08-10T20:49:25.738Z,26.40
2022-08-10T20:52:00.369Z,26.30
2022-08-10T20:54:35.064Z,26.30
2022-08-10T20:58:04.053Z,26.20
2022-08-10T21:00:28.831Z,26.20
2022-08-10T21:03:43.605Z,26.10
2022-08-10T21:06:43.325Z,26.00
2022-08-10T21:09:32.622Z,26.00
2022-08-10T21:12:32.181Z,25.90
2022-08-10T21:15:21.725Z,25.80
2022-08-10T21:18:12.593Z,25.80
2022-08-10T21:20:54.556Z,25.70
2022-08-10T21:23:30.569Z,25.70
2022-08-10T21:26:07.339Z,25.60
2022-08-10T21:29:10.580Z,25.50
2022-08-10T21:32:23.303Z,25.50
2022-08-10T21:38:12.737Z,25.30
2022-08-10T21:41:56.663Z,25.20
2022-08-10T21:44:49.406Z,25.20
2022-08-10T21:48:06.561Z,25.10
2022-08-10T21:51:16.266Z,25.00
2022-08-10T21:54:25.805Z,25.00
2022-08-10T21:57:26.260Z,24.90
2022-08-10T22:00:20.501Z,24.90
2022-08-10T22:03:10.033Z,24.80
2022-08-10T22:05:59.712Z,24.80
2022-08-10T22:08:56.026Z,24.70
2022-08-10T22:11:47.366Z,24.70
2022-08-10T22:14:43.661Z,24.60
2022-08-10T22:18:01.208Z,24.50
2022-08-10T22:20:45.085Z,24.40
2022-08-10T22:24:16.735Z,24.40
2022-08-10T22:27:46.614Z,24.30
2022-08-10T22:30:28.234Z,24.20
2022-08-10T22:31:24.824Z,25.40
2022-08-10T22:33:42.023Z,24.10
2022-08-10T22:37:04.693Z,24.10
2022-08-10T22:40:16.618Z,24.00
2022-08-10T22:43:09.980Z,24.00
2022-08-10T22:46:05.037Z,23.90
2022-08-10T22:48:59.580Z,23.80
2022-08-10T22:51:40.763Z,23.80
2022-08-10T22:54:38.547Z,23.80
2022-08-10T22:57:32.693Z,23.70
2022-08-10T23:00:16.969Z,23.70
2022-08-10T23:02:56.337Z,23.60
2022-08-10T23:05:34.521Z,23.60
2022-08-10T23:08:28.232Z,23.60
2022-08-10T23:11:06.355Z,23.50
2022-08-10T23:13:42.878Z,23.50
2022-08-10T23:16:36.615Z,23.50
2022-08-10T23:19:12.277Z,23.40
2022-08-10T23:22:03.515Z,23.40
2022-08-10T23:24:38.504Z,23.40
2022-08-10T23:27:13.094Z,23.30
2022-08-10T23:30:09.721Z,23.30
2022-08-10T23:32:45.122Z,23.20
2022-08-10T23:36:04.536Z,23.20
2022-08-10T23:38:06.950Z,23.20
2022-08-10T23:40:36.376Z,23.10
2022-08-10T23:43:06.995Z,23.00
2022-08-10T23:45:53.772Z,23.00
2022-08-10T23:48:27.057Z,23.00
2022-08-10T23:50:59.496Z,22.90
2022-08-10T23:53:32.426Z,22.90
2022-08-10T23:56:09.993Z,22.80
2022-08-10T23:58:44.332Z,22.80
